Time;durP1;ratioP1;P1;durP2;ratioP2;P2;SDS_P1;SDS_P2;PMS_P1;PMS_P2;Temp;Humidity;BMP_temperature;BMP_pressure;BME280_temperature;BME280_humidity;BME280_pressure;Samples;Min_cycle;Max_cycle;Signal;HPM_P1;HPM_P2
2023/03/30 00:01:01;;;;;;;9.65;5.18;;;15.90;99.90;;;;;;5015772;28;20026;-79
2023/03/30 00:03:27;;;;;;;13.75;7.72;;;15.80;99.90;;;;;;5016321;28;20030;-80
2023/03/30 00:05:57;;;;;;;9.15;6.72;;;15.70;99.90;;;;;;5000023;28;20033;-80
2023/03/30 00:08:27;;;;;;;12.32;6.60;;;15.80;99.90;;;;;;5017006;28;20378;-80
2023/03/30 00:10:59;;;;;;;13.27;6.45;;;15.80;99.90;;;;;;5016974;28;20037;-80
2023/03/30 00:13:27;;;;;;;10.45;7.20;;;15.90;99.90;;;;;;5002849;28;20040;-80
2023/03/30 00:15:53;;;;;;;12.43;8.25;;;15.80;99.90;;;;;;5013507;28;20034;-80
2023/03/30 00:18:19;;;;;;;12.85;6.78;;;15.80;99.90;;;;;;5012686;28;20033;-80
2023/03/30 00:20:47;;;;;;;12.38;6.80;;;15.80;99.90;;;;;;5014062;28;20030;-80
2023/03/30 00:23:13;;;;;;;14.50;6.95;;;15.80;99.90;;;;;;5028818;28;20046;-81
2023/03/30 00:25:41;;;;;;;17.05;8.85;;;15.80;99.90;;;;;;5013827;28;20033;-80
2023/03/30 00:28:07;;;;;;;10.07;6.20;;;15.70;99.90;;;;;;5032813;28;20029;-80
2023/03/30 00:30:33;;;;;;;10.48;6.25;;;15.70;99.90;;;;;;5031530;28;20490;-80
2023/03/30 00:33:00;;;;;;;17.83;6.70;;;15.70;99.90;;;;;;5015645;28;20479;-80
2023/03/30 00:35:29;;;;;;;10.35;5.03;;;15.70;99.90;;;;;;5033337;28;20030;-80
2023/03/30 00:37:56;;;;;;;8.68;6.38;;;15.80;99.90;;;;;;5032035;28;20027;-80
2023/03/30 00:40:22;;;;;;;9.60;6.20;;;15.80;99.90;;;;;;5033313;28;20037;-80
2023/03/30 00:42:48;;;;;;;9.30;5.88;;;15.70;99.90;;;;;;5032138;28;20022;-80
2023/03/30 00:45:26;;;;;;;8.43;5.85;;;15.60;99.90;;;;;;5032230;28;20030;-80
2023/03/30 00:48:05;;;;;;;9.77;5.95;;;15.50;99.90;;;;;;5031722;28;20048;-80
2023/03/30 00:50:42;;;;;;;11.13;5.13;;;15.50;99.90;;;;;;5032093;28;20041;-80
2023/03/30 00:53:38;;;;;;;10.07;5.30;;;15.50;99.90;;;;;;5016530;28;20037;-80
2023/03/30 00:56:06;;;;;;;8.93;4.70;;;15.40;99.90;;;;;;5001735;28;20399;-80
2023/03/30 00:58:32;;;;;;;11.70;4.80;;;15.50;99.90;;;;;;5015158;28;20036;-80
2023/03/30 01:00:59;;;;;;;12.68;5.00;;;15.30;99.90;;;;;;5014932;28;20029;-79
2023/03/30 01:03:58;;;;;;;10.23;4.70;;;15.30;99.90;;;;;;5015133;28;20033;-80
2023/03/30 01:06:25;;;;;;;8.32;4.60;;;15.20;99.90;;;;;;5013987;28;20048;-80
2023/03/30 01:08:51;;;;;;;10.02;4.40;;;15.10;99.90;;;;;;5014235;28;20032;-80
2023/03/30 01:11:17;;;;;;;9.77;4.55;;;15.00;99.90;;;;;;5014027;28;20037;-80
2023/03/30 01:13:46;;;;;;;5.90;4.28;;;14.90;99.90;;;;;;5010289;28;20041;-80
2023/03/30 01:16:34;;;;;;;11.10;4.32;;;14.90;99.90;;;;;;5010155;28;20454;-80
2023/03/30 01:19:33;;;;;;;8.35;4.30;;;14.90;99.90;;;;;;5010779;28;20514;-79
2023/03/30 01:22:11;;;;;;;10.77;4.18;;;14.80;99.90;;;;;;5010459;28;20085;-79
2023/03/30 01:24:47;;;;;;;10.48;4.40;;;14.80;99.90;;;;;;5009761;28;20030;-80
2023/03/30 01:27:39;;;;;;;12.95;4.43;;;14.80;99.90;;;;;;5010274;28;20034;-80
2023/03/30 01:30:13;;;;;;;10.77;4.55;;;14.80;99.90;;;;;;5029664;28;20052;-79
2023/03/30 01:33:01;;;;;;;9.90;3.85;;;14.80;99.90;;;;;;5013918;28;20516;-80
2023/03/30 01:35:45;;;;;;;12.95;4.20;;;14.90;99.90;;;;;;5013698;28;20040;-80
2023/03/30 01:38:19;;;;;;;7.20;3.50;;;14.80;99.90;;;;;;5030337;28;20478;-80
2023/03/30 01:41:15;;;;;;;7.82;3.60;;;14.90;99.90;;;;;;5030185;28;20414;-80
2023/03/30 01:43:55;;;;;;;10.13;3.80;;;15.00;99.90;;;;;;5027124;28;20060;-80
2023/03/30 01:46:29;;;;;;;10.90;4.30;;;14.90;99.90;;;;;;5015047;28;20038;-80
2023/03/30 01:49:21;;;;;;;8.43;4.00;;;14.80;99.90;;;;;;5015011;28;20041;-80
2023/03/30 01:51:59;;;;;;;11.50;3.88;;;14.80;99.90;;;;;;5029812;28;20040;-80
2023/03/30 01:54:30;;;;;;;10.20;4.10;;;14.70;99.90;;;;;;5014684;28;20086;-79
2023/03/30 01:57:01;;;;;;;9.10;3.65;;;14.60;99.90;;;;;;5013523;28;20053;-80
2023/03/30 01:59:56;;;;;;;9.73;3.95;;;14.70;99.90;;;;;;5013881;28;20041;-80
2023/03/30 02:02:25;;;;;;;8.23;3.75;;;14.70;99.90;;;;;;5012316;28;20029;-80
2023/03/30 02:04:52;;;;;;;8.13;3.65;;;14.70;99.90;;;;;;5013724;28;20048;-80
2023/03/30 02:07:21;;;;;;;10.27;3.65;;;14.70;99.90;;;;;;4997162;28;20592;-80
2023/03/30 02:09:47;;;;;;;10.88;3.88;;;14.70;99.90;;;;;;5013532;28;20037;-80
2023/03/30 02:12:13;;;;;;;7.63;3.92;;;14.70;99.90;;;;;;5009270;28;20042;-80
2023/03/30 02:14:40;;;;;;;8.25;4.13;;;14.70;99.90;;;;;;4993828;28;20033;-80
2023/03/30 02:17:24;;;;;;;14.32;4.22;;;14.60;99.90;;;;;;4976700;28;20030;-79
2023/03/30 02:19:51;;;;;;;12.13;4.30;;;14.60;99.90;;;;;;5010045;28;20383;-80
2023/03/30 02:22:18;;;;;;;11.63;4.85;;;14.60;99.90;;;;;;4993762;28;20050;-80
2023/03/30 02:24:45;;;;;;;10.57;4.97;;;14.60;99.90;;;;;;4993409;28;20375;-79
2023/03/30 02:27:11;;;;;;;12.45;4.53;;;14.60;99.90;;;;;;4993509;28;20030;-79
2023/03/30 02:29:40;;;;;;;9.85;4.90;;;14.60;99.90;;;;;;5022159;28;20034;-79
2023/03/30 02:32:08;;;;;;;12.70;4.85;;;14.60;99.90;;;;;;5014007;28;20036;-79
2023/03/30 02:34:49;;;;;;;8.00;4.65;;;14.50;99.90;;;;;;5014446;28;20022;-79
2023/03/30 02:37:18;;;;;;;8.68;4.80;;;14.40;99.90;;;;;;5035281;28;20025;-80
2023/03/30 02:40:28;;;;;;;8.57;4.80;;;14.40;99.90;;;;;;5033974;28;20065;-79
2023/03/30 02:43:18;;;;;;;10.13;4.47;;;14.50;99.90;;;;;;5034922;28;20040;-80
2023/03/30 02:45:47;;;;;;;13.40;4.57;;;14.50;99.90;;;;;;5035152;28;20041;-79
2023/03/30 02:48:26;;;;;;;14.60;4.60;;;14.50;99.90;;;;;;5035457;28;20052;-80
2023/03/30 02:51:00;;;;;;;10.35;4.00;;;14.50;99.90;;;;;;5035435;28;20025;-80
2023/03/30 02:53:32;;;;;;;14.05;4.75;;;14.50;99.90;;;;;;5018436;28;20041;-80
2023/03/30 02:56:18;;;;;;;11.40;4.25;;;14.40;99.90;;;;;;5017416;28;20030;-80
2023/03/30 02:58:50;;;;;;;12.88;4.53;;;14.30;99.90;;;;;;5035141;28;20036;-79
2023/03/30 03:01:19;;;;;;;16.45;5.25;;;14.30;99.90;;;;;;5001309;28;20398;-80
2023/03/30 03:03:47;;;;;;;16.08;4.72;;;14.30;99.90;;;;;;5033976;28;20052;-80
2023/03/30 03:06:13;;;;;;;16.40;4.40;;;14.30;99.90;;;;;;5001309;28;20034;-79
2023/03/30 03:08:41;;;;;;;16.50;4.65;;;14.40;99.90;;;;;;5033519;28;20340;-80
2023/03/30 03:11:08;;;;;;;12.57;4.63;;;14.40;99.90;;;;;;5017646;28;20033;-80
2023/03/30 03:13:37;;;;;;;15.25;4.40;;;14.30;99.90;;;;;;5019487;28;20364;-79
2023/03/30 03:16:05;;;;;;;13.43;4.68;;;14.30;99.90;;;;;;5013687;28;20033;-80
2023/03/30 03:18:31;;;;;;;10.90;4.10;;;14.30;99.90;;;;;;5014118;28;20030;-79
2023/03/30 03:20:57;;;;;;;16.02;4.93;;;14.10;99.90;;;;;;5013803;28;20382;-80
2023/03/30 03:23:23;;;;;;;12.98;4.40;;;14.00;99.90;;;;;;4997261;28;20058;-80
2023/03/30 03:25:50;;;;;;;17.05;4.32;;;14.00;99.90;;;;;;5013847;28;20574;-80
2023/03/30 03:28:16;;;;;;;14.65;4.20;;;14.00;99.90;;;;;;5018002;28;20493;-80
2023/03/30 03:30:42;;;;;;;20.73;4.78;;;14.00;99.90;;;;;;5034202;28;20037;-80
2023/03/30 03:33:08;;;;;;;18.65;4.65;;;13.90;99.90;;;;;;5034457;28;20386;-79
2023/03/30 03:35:38;;;;;;;16.70;4.85;;;13.90;99.90;;;;;;5034686;28;20032;-79
2023/03/30 03:38:06;;;;;;;18.67;5.00;;;13.90;99.90;;;;;;5034054;28;20036;-79
2023/03/30 03:40:32;;;;;;;17.67;4.97;;;14.00;99.90;;;;;;5032835;28;20033;-80
2023/03/30 03:42:58;;;;;;;17.48;4.80;;;13.90;99.90;;;;;;5034511;28;20056;-78
2023/03/30 03:45:24;;;;;;;13.25;5.20;;;13.90;99.90;;;;;;5032531;28;20394;-81
2023/03/30 03:47:51;;;;;;;15.55;4.82;;;13.90;99.90;;;;;;5032291;28;20037;-80
2023/03/30 03:50:17;;;;;;;21.70;5.57;;;14.00;99.90;;;;;;5034195;28;20033;-80
2023/03/30 03:52:43;;;;;;;21.17;5.30;;;14.00;99.90;;;;;;5033959;28;20053;-80
2023/03/30 03:55:09;;;;;;;21.52;5.53;;;14.00;99.90;;;;;;5034149;28;20029;-80
2023/03/30 03:57:35;;;;;;;23.83;5.93;;;14.10;99.90;;;;;;5033064;28;20036;-80
2023/03/30 04:00:03;;;;;;;18.75;5.03;;;14.00;99.90;;;;;;5034108;28;20026;-79
2023/03/30 04:02:29;;;;;;;19.40;5.20;;;14.10;99.90;;;;;;5032310;28;20394;-80
2023/03/30 04:04:56;;;;;;;20.95;5.72;;;14.00;99.90;;;;;;5033912;28;20029;-80
2023/03/30 04:07:24;;;;;;;19.45;6.15;;;13.90;99.90;;;;;;5033540;28;20033;-80
2023/03/30 04:09:50;;;;;;;19.80;5.82;;;13.90;99.90;;;;;;5032769;28;20025;-80
2023/03/30 04:12:16;;;;;;;23.40;5.70;;;13.90;99.90;;;;;;5009406;28;20050;-80
2023/03/30 04:14:42;;;;;;;19.50;6.13;;;13.90;99.90;;;;;;4994178;28;20049;-81
2023/03/30 04:17:08;;;;;;;22.63;5.85;;;13.90;99.90;;;;;;5006435;28;20030;-80
2023/03/30 04:19:34;;;;;;;27.60;6.57;;;13.90;99.90;;;;;;5020185;28;20037;-79
2023/03/30 04:22:01;;;;;;;24.40;5.72;;;13.90;99.90;;;;;;5033338;28;20514;-79
2023/03/30 04:24:28;;;;;;;18.98;5.82;;;13.90;99.90;;;;;;5029170;28;20034;-80
2023/03/30 04:26:56;;;;;;;25.20;5.45;;;13.90;99.90;;;;;;5033507;28;20150;-80
2023/03/30 04:29:22;;;;;;;24.05;6.28;;;13.90;99.90;;;;;;5024345;28;20454;-80
2023/03/30 04:31:49;;;;;;;23.98;6.10;;;13.90;99.90;;;;;;5014236;28;20038;-80
2023/03/30 04:34:20;;;;;;;27.38;5.85;;;13.90;99.90;;;;;;5033386;28;20044;-80
2023/03/30 04:36:47;;;;;;;22.33;6.03;;;13.90;99.90;;;;;;5009391;28;20030;-80
2023/03/30 04:39:17;;;;;;;25.83;7.47;;;13.90;99.90;;;;;;5013821;28;20393;-79
2023/03/30 04:41:44;;;;;;;24.40;6.18;;;13.80;99.90;;;;;;5012395;28;20026;-80
2023/03/30 04:44:10;;;;;;;25.42;6.75;;;13.80;99.90;;;;;;5012346;28;20459;-80
2023/03/30 04:46:36;;;;;;;29.23;7.47;;;13.70;99.90;;;;;;5028946;28;20029;-80
2023/03/30 04:49:03;;;;;;;23.17;7.05;;;13.70;99.90;;;;;;5033068;28;20032;-80
2023/03/30 04:51:30;;;;;;;28.10;6.40;;;13.80;99.90;;;;;;5032863;28;20028;-79
2023/03/30 04:53:56;;;;;;;26.95;7.18;;;13.80;99.90;;;;;;5031723;28;20044;-80
2023/03/30 04:56:22;;;;;;;26.23;6.72;;;13.70;99.90;;;;;;5015718;28;20037;-79
2023/03/30 04:58:48;;;;;;;27.20;6.68;;;13.60;99.90;;;;;;5031680;28;20037;-80
2023/03/30 05:01:14;;;;;;;29.80;7.05;;;13.60;99.90;;;;;;5031035;28;20414;-80
2023/03/30 05:03:40;;;;;;;31.77;6.80;;;13.60;99.90;;;;;;5014202;28;20030;-79
2023/03/30 05:06:07;;;;;;;28.02;6.78;;;13.60;99.90;;;;;;5012708;28;20486;-80
2023/03/30 05:08:34;;;;;;;27.00;7.00;;;13.60;99.90;;;;;;5011548;28;20041;-80
2023/03/30 05:11:01;;;;;;;36.03;7.50;;;13.60;99.90;;;;;;5013032;28;20036;-80
2023/03/30 05:13:27;;;;;;;33.90;8.13;;;13.60;99.90;;;;;;5011545;28;20060;-80
2023/03/30 05:15:54;;;;;;;31.77;6.80;;;13.60;99.90;;;;;;5011240;28;20045;-80
2023/03/30 05:18:20;;;;;;;32.75;6.80;;;13.60;99.90;;;;;;5028228;28;20509;-79
2023/03/30 05:20:47;;;;;;;29.50;7.35;;;13.60;99.90;;;;;;5012443;28;20022;-80
2023/03/30 05:23:13;;;;;;;29.77;7.00;;;13.60;99.90;;;;;;5011596;28;20050;-80
2023/03/30 05:25:45;;;;;;;33.30;7.68;;;13.50;99.90;;;;;;4995291;28;20029;-80
2023/03/30 05:28:11;;;;;;;39.05;7.00;;;13.50;99.90;;;;;;5011425;28;20041;-80
2023/03/30 05:30:37;;;;;;;32.13;7.63;;;13.50;99.90;;;;;;5011124;28;20031;-80
2023/03/30 05:33:04;;;;;;;33.33;7.43;;;13.50;99.90;;;;;;5011308;28;20121;-80
2023/03/30 05:35:30;;;;;;;31.15;6.90;;;13.40;99.90;;;;;;5012373;28;20383;-80
2023/03/30 05:37:57;;;;;;;28.80;7.00;;;13.50;99.90;;;;;;5029769;28;20034;-80
2023/03/30 05:40:23;;;;;;;26.67;7.63;;;13.50;99.90;;;;;;5032574;28;20370;-80
2023/03/30 05:42:49;;;;;;;31.92;7.18;;;13.50;99.90;;;;;;5032186;28;20029;-81
2023/03/30 05:45:15;;;;;;;29.58;8.35;;;13.40;99.90;;;;;;5031566;28;20049;-80
2023/03/30 05:47:41;;;;;;;34.38;7.28;;;13.40;99.90;;;;;;5030929;28;20032;-80
2023/03/30 05:50:08;;;;;;;33.13;7.60;;;13.50;99.90;;;;;;5031728;28;20029;-80
2023/03/30 05:52:34;;;;;;;41.58;7.50;;;13.40;99.90;;;;;;5030654;28;20049;-79
2023/03/30 05:55:00;;;;;;;33.97;7.10;;;13.40;99.90;;;;;;5014637;28;20048;-80
2023/03/30 05:57:26;;;;;;;34.78;7.82;;;13.40;99.90;;;;;;5032321;28;20022;-80
2023/03/30 05:59:53;;;;;;;32.70;6.95;;;13.50;99.90;;;;;;5030915;28;20041;-80
2023/03/30 06:02:19;;;;;;;35.97;7.53;;;13.50;99.90;;;;;;5031721;28;20037;-79
2023/03/30 06:04:46;;;;;;;36.08;7.70;;;13.50;99.90;;;;;;5030765;28;20025;-80
2023/03/30 06:07:12;;;;;;;32.00;6.90;;;13.50;99.90;;;;;;5030898;28;20025;-80
2023/03/30 06:09:38;;;;;;;35.08;7.63;;;13.50;99.90;;;;;;5031102;28;20022;-80
2023/03/30 06:12:04;;;;;;;45.80;7.57;;;13.50;99.90;;;;;;5033405;28;20037;-81
2023/03/30 06:14:31;;;;;;;32.88;7.40;;;13.60;99.90;;;;;;5031415;28;20045;-80
2023/03/30 06:16:57;;;;;;;35.80;8.65;;;13.50;99.90;;;;;;5014423;28;20395;-80
2023/03/30 06:19:23;;;;;;;30.98;7.35;;;13.60;99.90;;;;;;5014828;28;20038;-80
2023/03/30 06:21:49;;;;;;;42.85;8.55;;;13.60;99.90;;;;;;5016226;28;20042;-81
2023/03/30 06:24:15;;;;;;;36.78;8.23;;;13.60;99.90;;;;;;5015903;28;20045;-80
2023/03/30 06:26:41;;;;;;;34.17;8.10;;;13.60;99.90;;;;;;4998261;28;20042;-80
2023/03/30 06:29:07;;;;;;;37.70;7.85;;;13.70;99.90;;;;;;5015880;28;20041;-82
2023/03/30 06:31:33;;;;;;;32.90;8.80;;;13.70;99.90;;;;;;5015277;28;20034;-80
2023/03/30 06:33:59;;;;;;;33.95;8.50;;;13.70;99.90;;;;;;5015615;28;20494;-80
2023/03/30 06:36:26;;;;;;;36.13;7.85;;;13.70;99.90;;;;;;4998247;28;20077;-80
2023/03/30 06:38:52;;;;;;;38.83;8.40;;;13.70;99.90;;;;;;5015849;28;20037;-81
2023/03/30 06:41:18;;;;;;;35.35;7.78;;;13.70;99.90;;;;;;5014091;28;20118;-81
2023/03/30 06:43:44;;;;;;;38.70;9.15;;;13.70;99.90;;;;;;5015884;28;20416;-81
2023/03/30 06:46:11;;;;;;;31.52;8.23;;;13.70;99.90;;;;;;5024190;28;20029;-81
2023/03/30 06:48:37;;;;;;;36.88;8.73;;;13.80;99.90;;;;;;5034196;28;20030;-81
2023/03/30 06:51:04;;;;;;;48.50;9.38;;;13.90;99.90;;;;;;5035439;28;20026;-81
2023/03/30 06:53:30;;;;;;;43.25;9.15;;;13.90;99.90;;;;;;5017643;28;20478;-81
2023/03/30 06:55:56;;;;;;;34.42;8.55;;;13.90;99.90;;;;;;5034094;28;20431;-81
2023/03/30 06:58:23;;;;;;;37.33;9.07;;;13.90;99.90;;;;;;5034049;28;20044;-81
2023/03/30 07:00:49;;;;;;;38.42;9.32;;;14.00;99.90;;;;;;5034712;28;20038;-81
2023/03/30 07:03:17;;;;;;;33.10;8.20;;;14.10;99.90;;;;;;5033917;28;20060;-81
2023/03/30 07:05:47;;;;;;;39.20;8.32;;;14.00;99.90;;;;;;5035143;28;20089;-80
2023/03/30 07:08:14;;;;;;;30.77;8.40;;;14.00;99.90;;;;;;5033906;28;20386;-80
2023/03/30 07:10:41;;;;;;;38.25;8.98;;;14.00;99.90;;;;;;5034890;28;20030;-81
2023/03/30 07:13:07;;;;;;;42.13;10.63;;;14.00;99.90;;;;;;5006996;28;20403;-81
2023/03/30 07:15:33;;;;;;;35.22;8.07;;;14.00;99.90;;;;;;5014411;28;20096;-80
2023/03/30 07:18:00;;;;;;;39.08;7.95;;;13.90;99.90;;;;;;5013929;28;20459;-81
2023/03/30 07:20:26;;;;;;;33.75;8.85;;;14.00;99.90;;;;;;5015168;28;20115;-80
2023/03/30 07:22:52;;;;;;;30.48;7.22;;;14.00;99.90;;;;;;5013482;28;20503;-81
2023/03/30 07:25:18;;;;;;;27.85;7.25;;;14.00;99.90;;;;;;5013657;28;20045;-82
2023/03/30 07:27:44;;;;;;;35.83;8.23;;;14.00;99.90;;;;;;5013255;28;20049;-81
2023/03/30 07:30:11;;;;;;;42.53;9.60;;;14.10;99.90;;;;;;5012547;28;20042;-81
2023/03/30 07:32:37;;;;;;;29.70;8.52;;;14.20;99.90;;;;;;4997112;28;20529;-82
2023/03/30 07:35:03;;;;;;;28.67;8.40;;;14.40;99.90;;;;;;5013552;28;20095;-81
2023/03/30 07:37:30;;;;;;;32.60;7.97;;;14.60;99.90;;;;;;4996697;28;20038;-82
2023/03/30 07:39:56;;;;;;;34.65;8.63;;;14.80;99.90;;;;;;5014720;28;20379;-81
2023/03/30 07:42:22;;;;;;;38.13;10.23;;;14.90;99.90;;;;;;5013282;28;20034;-80
2023/03/30 07:44:49;;;;;;;33.83;8.65;;;15.00;99.90;;;;;;4996886;28;20030;-81
2023/03/30 07:47:15;;;;;;;33.53;8.32;;;15.10;99.90;;;;;;5014665;28;20045;-81
2023/03/30 07:49:41;;;;;;;34.50;9.25;;;15.20;99.90;;;;;;5016645;28;20041;-81
2023/03/30 07:52:07;;;;;;;44.83;9.95;;;15.20;99.90;;;;;;5034282;28;20052;-81
2023/03/30 07:54:33;;;;;;;30.63;8.57;;;15.30;99.90;;;;;;5033031;28;20389;-81
2023/03/30 07:57:00;;;;;;;38.15;8.90;;;15.50;99.90;;;;;;5033000;28;20037;-80
2023/03/30 07:59:26;;;;;;;29.25;8.55;;;15.50;99.90;;;;;;5033868;28;20068;-81
2023/03/30 08:01:53;;;;;;;34.20;8.48;;;15.60;99.90;;;;;;5033630;28;20040;-80
2023/03/30 08:04:20;;;;;;;29.42;8.95;;;15.70;99.90;;;;;;5032791;28;20033;-79
2023/03/30 08:06:46;;;;;;;32.15;9.02;;;15.60;99.90;;;;;;5033839;28;20034;-80
2023/03/30 08:09:12;;;;;;;32.67;8.98;;;15.40;99.90;;;;;;5032879;28;20040;-81
2023/03/30 08:11:38;;;;;;;36.75;9.32;;;15.30;99.90;;;;;;5032759;28;20038;-81
2023/03/30 08:14:05;;;;;;;32.45;8.68;;;15.20;99.90;;;;;;5014966;28;20048;-81
2023/03/30 08:16:31;;;;;;;31.05;8.93;;;15.30;99.90;;;;;;5012270;28;20030;-80
2023/03/30 08:18:57;;;;;;;29.15;8.43;;;15.40;99.90;;;;;;5012834;28;20030;-81
2023/03/30 08:21:24;;;;;;;27.77;9.07;;;15.40;99.90;;;;;;5012655;28;20477;-80
2023/03/30 08:23:52;;;;;;;37.33;8.68;;;15.30;99.90;;;;;;5012481;28;20475;-81
2023/03/30 08:26:18;;;;;;;34.17;9.00;;;15.30;99.90;;;;;;4996229;28;20030;-81
2023/03/30 08:28:44;;;;;;;34.28;9.52;;;15.30;99.90;;;;;;5013392;28;20037;-81
2023/03/30 08:31:10;;;;;;;34.22;8.35;;;15.50;99.90;;;;;;5013141;28;20037;-80
2023/03/30 08:33:36;;;;;;;36.20;9.25;;;15.80;99.90;;;;;;5013373;28;20053;-81
2023/03/30 08:36:03;;;;;;;29.75;8.32;;;16.00;99.90;;;;;;5012316;28;20017;-81
2023/03/30 08:38:29;;;;;;;26.80;7.78;;;16.10;99.90;;;;;;5012457;28;20474;-81
2023/03/30 08:40:55;;;;;;;31.17;8.32;;;16.30;99.90;;;;;;5012500;28;20026;-80
2023/03/30 08:43:51;;;;;;;28.33;8.18;;;16.50;99.90;;;;;;5011945;28;20033;-81
2023/03/30 08:46:18;;;;;;;25.25;8.32;;;16.60;99.90;;;;;;5022199;28;20038;-80
2023/03/30 08:48:44;;;;;;;31.23;7.32;;;16.80;99.90;;;;;;4999485;28;20504;-81
2023/03/30 08:51:23;;;;;;;30.40;7.20;;;16.90;99.90;;;;;;5031911;28;20041;-80
2023/03/30 08:53:52;;;;;;;33.10;7.45;;;17.10;99.90;;;;;;5015543;28;20053;-81
2023/03/30 08:56:25;;;;;;;29.42;6.97;;;17.10;99.90;;;;;;5015721;28;20021;-81
2023/03/30 08:59:00;;;;;;;29.17;7.43;;;17.00;99.90;;;;;;5015758;28;20026;-81
2023/03/30 09:01:51;;;;;;;29.80;6.80;;;16.90;99.90;;;;;;5032367;28;20455;-80
2023/03/30 09:04:20;;;;;;;31.20;7.18;;;17.00;99.90;;;;;;5016085;28;20382;-80
2023/03/30 09:06:48;;;;;;;29.33;7.00;;;16.90;99.90;;;;;;5031676;28;20029;-81
2023/03/30 09:09:17;;;;;;;25.33;7.43;;;16.80;99.90;;;;;;5032784;28;20021;-81
2023/03/30 09:11:43;;;;;;;31.85;6.95;;;16.80;99.90;;;;;;5015225;28;20025;-82
2023/03/30 09:14:14;;;;;;;32.50;6.82;;;16.80;99.90;;;;;;5012770;28;20038;-81
2023/03/30 09:16:54;;;;;;;30.13;6.55;;;16.90;99.90;;;;;;4995300;28;20037;-81
2023/03/30 09:19:48;;;;;;;27.95;7.22;;;17.00;99.90;;;;;;5011773;28;20049;-81
2023/03/30 09:22:15;;;;;;;34.45;7.85;;;16.90;99.90;;;;;;5044710;28;20045;-81
2023/03/30 09:24:41;;;;;;;27.55;7.90;;;16.80;99.90;;;;;;5011597;28;20470;-81
2023/03/30 09:27:33;;;;;;;31.20;7.40;;;16.80;99.90;;;;;;4994798;28;20033;-81
2023/03/30 09:30:05;;;;;;;37.35;8.32;;;16.70;99.90;;;;;;5011512;28;20033;-80
2023/03/30 09:32:32;;;;;;;29.33;8.18;;;16.60;99.90;;;;;;4995010;28;20057;-80
2023/03/30 09:35:19;;;;;;;33.00;8.32;;;16.60;99.90;;;;;;4995013;28;20399;-81
2023/03/30 09:37:45;;;;;;;30.50;8.32;;;16.90;99.90;;;;;;5011225;28;20030;-81
2023/03/30 09:40:38;;;;;;;27.33;7.25;;;17.30;99.90;;;;;;5012290;28;20034;-81
2023/03/30 09:43:14;;;;;;;26.23;7.20;;;17.60;99.90;;;;;;4979368;28;20030;-81
2023/03/30 09:45:41;;;;;;;26.13;7.40;;;17.80;99.90;;;;;;5000289;28;20395;-80
2023/03/30 09:48:08;;;;;;;34.40;7.07;;;17.80;99.90;;;;;;5031049;28;20371;-80
2023/03/30 09:50:44;;;;;;;24.52;7.13;;;17.90;99.90;;;;;;5031055;28;20037;-81
2023/03/30 09:53:23;;;;;;;22.92;7.40;;;17.90;99.90;;;;;;5031013;28;20026;-80
2023/03/30 09:56:10;;;;;;;26.65;7.40;;;17.90;99.90;;;;;;5030749;28;20033;-82
2023/03/30 09:58:36;;;;;;;24.77;7.28;;;18.00;99.90;;;;;;4998483;28;20048;-80
2023/03/30 10:01:12;;;;;;;27.08;6.45;;;18.10;99.90;;;;;;5031996;28;20044;-80
2023/03/30 10:03:42;;;;;;;25.05;6.57;;;18.20;99.90;;;;;;5015125;28;20018;-80
2023/03/30 10:06:11;;;;;;;25.20;6.70;;;18.20;99.90;;;;;;5014714;28;20032;-80
2023/03/30 10:08:47;;;;;;;28.85;7.30;;;18.20;99.90;;;;;;5030893;28;20032;-80
2023/03/30 10:11:13;;;;;;;23.55;7.47;;;18.10;99.90;;;;;;5030740;28;20044;-81
2023/03/30 10:13:43;;;;;;;23.27;7.43;;;17.90;99.90;;;;;;4999692;28;20034;-79
2023/03/30 10:16:25;;;;;;;25.52;6.68;;;17.70;99.90;;;;;;5010687;28;20034;-81
2023/03/30 10:18:58;;;;;;;24.17;6.13;;;17.60;99.90;;;;;;5011219;28;20365;-80
2023/03/30 10:21:27;;;;;;;29.00;8.32;;;17.50;99.90;;;;;;5011089;28;20037;-79
2023/03/30 10:24:26;;;;;;;24.08;7.18;;;17.40;99.90;;;;;;5010521;28;20048;-80
2023/03/30 10:26:56;;;;;;;29.48;7.28;;;17.30;99.90;;;;;;5010813;28;20045;-81
2023/03/30 10:29:23;;;;;;;21.40;7.00;;;17.30;99.90;;;;;;5011050;28;20022;-80
2023/03/30 10:31:55;;;;;;;27.45;6.70;;;17.30;99.90;;;;;;4994274;28;20025;-81
2023/03/30 10:34:37;;;;;;;31.15;7.53;;;17.20;99.90;;;;;;4995222;28;20501;-79
2023/03/30 10:37:05;;;;;;;28.88;6.82;;;17.20;99.90;;;;;;5022001;28;20022;-80
2023/03/30 10:39:32;;;;;;;26.00;7.80;;;17.20;99.90;;;;;;5030823;28;20041;-81
2023/03/30 10:42:00;;;;;;;23.40;7.68;;;17.40;99.90;;;;;;5014336;28;20026;-81
2023/03/30 10:44:30;;;;;;;25.17;7.28;;;17.60;99.90;;;;;;5030583;28;20030;-81
2023/03/30 10:47:18;;;;;;;27.23;7.20;;;18.00;99.90;;;;;;5014015;28;20036;-81
2023/03/30 10:49:55;;;;;;;24.58;6.80;;;18.30;99.90;;;;;;5031671;28;20028;-82
2023/03/30 10:52:24;;;;;;;26.05;7.28;;;18.40;99.90;;;;;;5030020;28;20028;-75
2023/03/30 10:54:54;;;;;;;27.20;7.78;;;18.20;99.90;;;;;;5031784;28;20034;-81
2023/03/30 10:57:22;;;;;;;26.88;7.75;;;18.00;99.90;;;;;;5016393;28;20459;-80
2023/03/30 11:00:24;;;;;;;24.33;6.43;;;17.70;99.90;;;;;;5034153;28;20132;-81
2023/03/30 11:02:56;;;;;;;19.30;5.88;;;17.70;99.90;;;;;;5029422;28;20029;-82
2023/03/30 11:05:43;;;;;;;23.17;6.03;;;18.00;99.90;;;;;;5035283;28;20033;-80
2023/03/30 11:08:13;;;;;;;23.50;7.05;;;18.20;99.90;;;;;;5033904;28;20489;-81
2023/03/30 11:10:41;;;;;;;23.75;7.65;;;18.30;99.90;;;;;;5033954;28;20041;-81
2023/03/30 11:13:12;;;;;;;25.33;6.30;;;18.50;99.90;;;;;;5007139;28;20026;-81
2023/03/30 11:15:38;;;;;;;;;;;18.60;99.90;;;;;;5014058;28;20049;-81
2023/03/30 11:18:10;;;;;;;20.20;6.50;;;18.80;99.90;;;;;;5015089;28;19948;-80
2023/03/30 11:20:46;;;;;;;17.70;5.78;;;18.80;99.90;;;;;;5014876;28;20029;-80
2023/03/30 11:23:15;;;;;;;20.90;6.22;;;18.90;99.90;;;;;;5014434;28;20042;-80
2023/03/30 11:25:47;;;;;;;22.25;6.38;;;18.90;99.90;;;;;;5013592;28;20038;-80
2023/03/30 11:28:35;;;;;;;21.30;7.00;;;19.00;99.90;;;;;;5015013;28;20026;-81
2023/03/30 11:31:26;;;;;;;20.75;6.32;;;19.20;99.90;;;;;;5013204;28;20025;-80
2023/03/30 11:34:24;;;;;;;22.50;5.97;;;19.20;99.90;;;;;;5013689;28;20030;-80
2023/03/30 11:37:01;;;;;;;20.00;5.82;;;19.50;99.90;;;;;;5021699;28;20387;-81
2023/03/30 11:39:30;;;;;;;19.52;6.45;;;19.80;99.90;;;;;;5016828;28;20041;-82
2023/03/30 11:42:05;;;;;;;20.00;6.70;;;19.80;99.90;;;;;;4999101;28;20041;-80
2023/03/30 11:44:31;;;;;;;18.70;5.93;;;19.70;99.90;;;;;;5016492;28;20029;-79
2023/03/30 11:47:16;;;;;;;26.52;6.38;;;19.80;99.90;;;;;;5015385;28;20061;-80
2023/03/30 11:50:03;;;;;;;23.92;6.80;;;19.90;99.90;;;;;;5032257;28;20034;-81
2023/03/30 11:52:54;;;;;;;22.00;9.23;;;19.90;99.90;;;;;;5017799;28;20109;-80
2023/03/30 11:55:32;;;;;;;23.10;6.57;;;19.70;99.90;;;;;;5032072;28;20390;-81
2023/03/30 11:58:05;;;;;;;25.58;7.03;;;19.60;99.90;;;;;;5015490;28;20033;-79
2023/03/30 12:00:35;;;;;;;21.23;6.03;;;19.70;99.90;;;;;;5031501;28;20034;-80
2023/03/30 12:03:12;;;;;;;20.70;7.03;;;19.80;99.90;;;;;;5031732;28;20044;-79
2023/03/30 12:05:41;;;;;;;27.38;7.28;;;19.90;99.90;;;;;;4998768;28;20037;-79
2023/03/30 12:08:25;;;;;;;19.88;7.70;;;19.90;99.90;;;;;;4998504;28;20140;-80
2023/03/30 12:11:04;;;;;;;22.75;6.82;;;19.90;99.90;;;;;;5031725;28;20037;-81
2023/03/30 12:13:30;;;;;;;19.67;6.72;;;20.00;99.90;;;;;;5000709;28;20038;-81
2023/03/30 12:16:01;;;;;;;18.80;6.35;;;20.10;99.90;;;;;;5025485;28;20094;-80
2023/03/30 12:18:33;;;;;;;;;;;20.20;99.90;;;;;;5026434;28;20026;-81
2023/03/30 12:21:10;;;;;;;19.05;6.45;;;20.20;99.90;;;;;;4993094;28;19913;-80
2023/03/30 12:23:46;;;;;;;20.50;6.57;;;20.30;99.90;;;;;;5008999;28;20054;-80
2023/03/30 12:26:26;;;;;;;21.40;6.72;;;20.40;99.90;;;;;;5009631;28;20030;-81
2023/03/30 12:28:52;;;;;;;20.95;7.15;;;20.60;99.90;;;;;;5009754;28;20038;-81
2023/03/30 12:31:19;;;;;;;18.30;6.20;;;20.70;99.90;;;;;;4992247;28;20034;-81
2023/03/30 12:33:49;;;;;;;21.95;6.45;;;20.50;99.90;;;;;;5025522;28;20383;-80
2023/03/30 12:36:34;;;;;;;13.70;5.73;;;20.30;99.90;;;;;;5003302;28;20040;-79
2023/03/30 12:39:01;;;;;;;21.30;5.97;;;20.00;99.90;;;;;;5032261;28;20032;-78
2023/03/30 12:41:28;;;;;;;27.98;6.15;;;19.70;99.90;;;;;;5015950;28;20029;-80
2023/03/30 12:44:13;;;;;;;20.15;6.20;;;19.60;99.90;;;;;;5015876;28;20355;-80
2023/03/30 12:46:48;;;;;;;18.25;6.25;;;19.60;99.90;;;;;;5031701;28;20037;-80
2023/03/30 12:49:26;;;;;;;21.45;6.45;;;19.60;99.90;;;;;;5031686;28;20025;-80
2023/03/30 12:51:56;;;;;;;18.98;6.18;;;19.80;99.90;;;;;;5031985;28;20064;-81
2023/03/30 12:54:25;;;;;;;18.17;6.10;;;20.00;99.90;;;;;;5031873;28;20041;-79
2023/03/30 12:57:01;;;;;;;17.85;6.13;;;19.90;99.90;;;;;;5031915;28;20022;-80